Time;durP1;ratioP1;P1;durP2;ratioP2;P2;SDS_P1;SDS_P2;PMS_P1;PMS_P2;Temp;Humidity;BMP_temperature;BMP_pressure;BME280_temperature;BME280_humidity;BME280_pressure;Samples;Min_cycle;Max_cycle;Signal;HPM_P1;HPM_P2
2021/05/02 00:02:16;;;;;;;26.75;21.55;;;6.40;80.90;;;;;;5058078;28;20392;-72
2021/05/02 00:04:42;;;;;;;23.23;19.92;;;6.40;81.10;;;;;;5056790;28;20040;-74
2021/05/02 00:07:09;;;;;;;29.50;21.52;;;6.30;81.20;;;;;;5060605;28;20033;-73
2021/05/02 00:09:34;;;;;;;25.05;20.95;;;6.30;81.30;;;;;;5061203;28;20028;-73
2021/05/02 00:12:00;;;;;;;24.70;20.40;;;6.20;81.50;;;;;;5056303;28;20082;-74
2021/05/02 00:14:27;;;;;;;28.08;21.38;;;6.10;81.50;;;;;;5054607;28;20033;-73
2021/05/02 00:16:56;;;;;;;25.35;21.30;;;6.10;81.60;;;;;;5060579;28;20029;-74
2021/05/02 00:19:22;;;;;;;25.55;21.17;;;6.10;81.60;;;;;;5060961;28;20064;-73
2021/05/02 00:21:49;;;;;;;24.75;20.95;;;6.10;81.80;;;;;;5059868;28;20118;-73
2021/05/02 00:24:20;;;;;;;24.50;21.35;;;6.10;82.00;;;;;;5059111;28;20037;-75
2021/05/02 00:26:46;;;;;;;27.08;21.73;;;6.00;82.00;;;;;;5059086;28;20060;-74
2021/05/02 00:29:15;;;;;;;30.80;24.08;;;6.00;82.20;;;;;;5058162;28;20404;-74
2021/05/02 00:31:42;;;;;;;29.63;24.02;;;6.00;82.30;;;;;;5062246;28;20495;-73
2021/05/02 00:34:10;;;;;;;29.13;23.23;;;5.90;82.40;;;;;;5056599;28;20149;-75
2021/05/02 00:36:37;;;;;;;27.10;23.33;;;5.90;82.30;;;;;;5052568;28;20112;-74
2021/05/02 00:39:04;;;;;;;26.98;22.67;;;5.90;82.30;;;;;;5057025;28;20043;-72
2021/05/02 00:41:33;;;;;;;26.58;22.77;;;5.90;82.40;;;;;;5056403;28;20036;-74
2021/05/02 00:44:01;;;;;;;26.90;23.10;;;5.90;82.40;;;;;;5061817;28;20086;-74
2021/05/02 00:46:38;;;;;;;30.17;23.65;;;5.90;82.40;;;;;;5057651;28;20032;-73
2021/05/02 00:49:27;;;;;;;32.13;25.05;;;5.80;82.40;;;;;;5045792;28;20548;-73
2021/05/02 00:51:58;;;;;;;27.90;23.92;;;5.70;82.50;;;;;;5040976;28;20101;-73
2021/05/02 00:54:35;;;;;;;30.52;25.70;;;5.70;82.50;;;;;;5044157;28;20126;-72
2021/05/02 00:57:10;;;;;;;28.95;24.85;;;5.70;82.70;;;;;;5044573;28;20024;-75
2021/05/02 00:59:56;;;;;;;27.95;24.50;;;5.70;82.70;;;;;;5064533;28;20060;-72
2021/05/02 01:02:27;;;;;;;26.02;22.90;;;5.70;82.60;;;;;;5060026;28;20493;-72
2021/05/02 01:04:53;;;;;;;27.85;23.00;;;5.80;82.60;;;;;;5062079;28;20061;-73
2021/05/02 01:07:22;;;;;;;26.20;22.05;;;5.80;82.60;;;;;;5048521;28;20357;-73
2021/05/02 01:09:49;;;;;;;27.48;22.77;;;5.80;82.60;;;;;;5061823;28;20115;-74
2021/05/02 01:12:18;;;;;;;30.27;24.17;;;5.70;82.60;;;;;;5059347;28;20476;-74
2021/05/02 01:14:52;;;;;;;27.83;23.80;;;5.70;82.50;;;;;;5058993;28;20033;-73
2021/05/02 01:17:18;;;;;;;29.23;23.90;;;5.70;82.70;;;;;;5063247;28;20040;-75
2021/05/02 01:19:47;;;;;;;27.13;23.15;;;5.70;82.70;;;;;;5062802;28;20046;-73
2021/05/02 01:22:17;;;;;;;28.77;23.88;;;5.60;82.80;;;;;;5058729;28;20139;-73
2021/05/02 01:24:51;;;;;;;29.17;24.25;;;5.60;82.90;;;;;;5064350;28;20419;-73
2021/05/02 01:27:25;;;;;;;;;;;5.60;82.90;;;;;;5064547;28;20036;-73
2021/05/02 01:29:51;;;;;;;28.98;23.25;;;5.60;83.00;;;;;;5060874;28;19944;-74
2021/05/02 01:32:17;;;;;;;33.00;24.40;;;5.60;83.20;;;;;;5063979;28;20064;-73
2021/05/02 01:34:44;;;;;;;29.98;24.02;;;5.60;83.10;;;;;;5065752;28;20060;-74
2021/05/02 01:37:10;;;;;;;31.67;25.30;;;5.60;83.20;;;;;;5063830;28;20692;-73
2021/05/02 01:39:36;;;;;;;32.50;26.23;;;5.70;83.30;;;;;;5066038;28;20078;-74
2021/05/02 01:42:02;;;;;;;34.95;27.27;;;5.60;83.40;;;;;;5062751;28;20079;-75
2021/05/02 01:44:28;;;;;;;33.60;25.77;;;5.70;83.30;;;;;;5063547;28;20068;-73
2021/05/02 01:46:55;;;;;;;33.97;25.58;;;5.70;83.50;;;;;;5041782;28;20041;-73
2021/05/02 01:49:23;;;;;;;31.58;25.92;;;5.70;83.60;;;;;;5058895;28;20090;-73
2021/05/02 01:51:49;;;;;;;32.53;25.52;;;5.70;83.70;;;;;;5067541;28;20036;-73
2021/05/02 01:54:16;;;;;;;33.60;26.23;;;5.70;83.90;;;;;;5043231;28;20034;-74
2021/05/02 01:56:43;;;;;;;31.02;24.63;;;5.80;83.80;;;;;;5055916;28;20268;-73
2021/05/02 01:59:10;;;;;;;29.70;24.95;;;5.80;83.70;;;;;;5065186;28;20063;-73
2021/05/02 02:01:36;;;;;;;29.70;24.35;;;5.80;83.60;;;;;;5060203;28;20406;-73
2021/05/02 02:04:05;;;;;;;26.90;23.02;;;5.80;83.90;;;;;;5066088;28;20040;-77
2021/05/02 02:06:32;;;;;;;29.58;22.02;;;5.90;83.80;;;;;;5064159;28;20028;-73
2021/05/02 02:08:59;;;;;;;28.10;22.52;;;6.00;83.90;;;;;;5069401;28;20037;-77
2021/05/02 02:11:29;;;;;;;31.15;23.27;;;6.00;83.70;;;;;;5070125;28;20045;-74
2021/05/02 02:13:56;;;;;;;26.35;21.05;;;6.10;83.70;;;;;;5073248;28;20033;-74
2021/05/02 02:16:23;;;;;;;27.00;20.85;;;6.10;83.60;;;;;;5066664;28;20041;-74
2021/05/02 02:18:49;;;;;;;25.30;20.33;;;6.10;83.50;;;;;;5067939;28;20090;-73
2021/05/02 02:21:18;;;;;;;24.33;18.25;;;6.10;83.70;;;;;;5066007;28;20048;-74
2021/05/02 02:23:48;;;;;;;24.25;18.63;;;6.10;83.90;;;;;;5068143;28;20036;-74
2021/05/02 02:26:18;;;;;;;23.15;17.80;;;6.10;83.80;;;;;;5066011;28;20032;-74
2021/05/02 02:28:47;;;;;;;28.08;18.63;;;6.10;83.80;;;;;;5068288;28;20032;-73
2021/05/02 02:31:14;;;;;;;22.83;15.82;;;6.00;84.40;;;;;;5065071;28;20089;-73
2021/05/02 02:33:41;;;;;;;22.77;14.68;;;5.90;84.90;;;;;;5066757;28;20426;-73
2021/05/02 02:36:10;;;;;;;20.75;14.18;;;5.90;85.30;;;;;;5063540;28;20075;-74
2021/05/02 02:38:40;;;;;;;18.58;13.63;;;5.90;85.40;;;;;;5044367;28;20051;-74
2021/05/02 02:41:06;;;;;;;19.98;13.98;;;6.10;85.30;;;;;;5041142;28;20416;-75
2021/05/02 02:43:33;;;;;;;16.95;13.27;;;6.10;85.40;;;;;;5044554;28;20036;-76
2021/05/02 02:46:03;;;;;;;19.88;13.88;;;6.10;85.40;;;;;;5046278;28;20100;-76
2021/05/02 02:48:31;;;;;;;19.15;14.43;;;6.20;85.50;;;;;;5065969;28;20029;-73
2021/05/02 02:50:59;;;;;;;19.27;14.68;;;6.20;85.70;;;;;;5066728;28;20045;-73
2021/05/02 02:53:30;;;;;;;19.05;14.38;;;6.20;85.80;;;;;;5063855;28;21211;-75
2021/05/02 02:56:07;;;;;;;20.48;15.27;;;6.20;85.80;;;;;;5050531;28;20108;-74
2021/05/02 02:58:46;;;;;;;20.30;15.02;;;6.20;85.70;;;;;;5055687;28;20132;-75
2021/05/02 03:01:13;;;;;;;19.33;14.70;;;6.30;85.70;;;;;;5052242;28;20071;-73
2021/05/02 03:03:44;;;;;;;18.60;14.38;;;6.30;85.60;;;;;;5063711;28;20029;-74
2021/05/02 03:06:11;;;;;;;17.40;13.65;;;6.30;85.60;;;;;;5046848;28;20045;-73
2021/05/02 03:08:39;;;;;;;20.17;15.73;;;6.30;85.90;;;;;;5040011;28;20041;-75
2021/05/02 03:11:06;;;;;;;18.05;14.73;;;6.30;85.80;;;;;;5042332;28;20492;-75
2021/05/02 03:13:32;;;;;;;18.88;13.95;;;6.30;85.80;;;;;;5046654;28;20055;-76
2021/05/02 03:16:01;;;;;;;18.23;14.05;;;6.30;85.80;;;;;;5039121;28;20030;-73
2021/05/02 03:18:32;;;;;;;19.67;15.25;;;6.30;85.90;;;;;;5041832;28;20037;-74
2021/05/02 03:21:08;;;;;;;19.70;14.68;;;6.30;85.80;;;;;;5042754;28;20082;-73
2021/05/02 03:23:44;;;;;;;18.42;14.75;;;6.30;85.90;;;;;;5041862;28;20036;-75
2021/05/02 03:26:11;;;;;;;19.13;14.77;;;6.20;85.90;;;;;;5042447;28;20452;-74
2021/05/02 03:28:45;;;;;;;19.80;15.20;;;6.30;86.00;;;;;;5040861;28;20041;-73
2021/05/02 03:31:13;;;;;;;18.27;14.27;;;6.20;86.00;;;;;;5039934;28;20093;-74
2021/05/02 03:33:47;;;;;;;18.85;14.65;;;6.20;86.10;;;;;;5042643;28;20064;-73
2021/05/02 03:36:16;;;;;;;19.65;15.13;;;6.20;86.10;;;;;;5042317;28;20484;-74
2021/05/02 03:38:49;;;;;;;18.52;13.88;;;6.20;86.10;;;;;;5043445;28;20111;-74
2021/05/02 03:41:15;;;;;;;18.55;14.52;;;6.10;86.10;;;;;;5044179;28;20045;-73
2021/05/02 03:43:42;;;;;;;19.00;14.60;;;6.10;86.00;;;;;;5042747;28;20061;-73
2021/05/02 03:46:23;;;;;;;18.67;13.82;;;6.20;86.00;;;;;;5043880;28;20044;-75
2021/05/02 03:48:56;;;;;;;17.13;14.02;;;6.20;86.00;;;;;;5044082;28;20025;-73
2021/05/02 03:51:22;;;;;;;18.52;14.55;;;6.20;85.90;;;;;;5043322;28;20507;-74
2021/05/02 03:53:47;;;;;;;20.27;16.25;;;6.20;85.80;;;;;;5044025;28;20033;-73
2021/05/02 03:56:54;;;;;;;18.63;14.73;;;6.20;85.90;;;;;;5055849;28;20388;-73
2021/05/02 03:59:22;;;;;;;19.55;15.18;;;6.20;85.90;;;;;;5030890;28;20099;-77
2021/05/02 04:01:50;;;;;;;18.67;13.73;;;6.20;85.90;;;;;;5048900;28;20066;-74
2021/05/02 04:04:19;;;;;;;18.00;14.13;;;6.20;85.90;;;;;;5066807;28;20071;-74
2021/05/02 04:06:45;;;;;;;18.73;14.63;;;6.20;85.90;;;;;;5059067;28;20423;-74
2021/05/02 04:09:12;;;;;;;20.35;15.18;;;6.20;85.90;;;;;;5063590;28;20375;-73
2021/05/02 04:11:39;;;;;;;18.70;14.63;;;6.20;86.00;;;;;;5063855;28;20041;-74
2021/05/02 04:14:06;;;;;;;21.13;15.00;;;6.10;85.90;;;;;;5061101;28;20059;-74
2021/05/02 04:16:32;;;;;;;20.70;15.10;;;6.10;85.90;;;;;;5060805;28;20033;-74
2021/05/02 04:18:58;;;;;;;21.25;15.73;;;6.10;86.00;;;;;;5064047;28;20029;-74
2021/05/02 04:21:24;;;;;;;19.60;16.05;;;6.10;86.10;;;;;;5065648;28;20515;-75
2021/05/02 04:23:49;;;;;;;18.70;14.93;;;6.00;86.10;;;;;;5062397;28;20067;-74
2021/05/02 04:26:15;;;;;;;18.63;14.55;;;6.10;86.10;;;;;;5067238;28;20147;-73
2021/05/02 04:28:41;;;;;;;22.10;15.85;;;6.00;86.00;;;;;;5058309;28;20027;-73
2021/05/02 04:31:07;;;;;;;24.92;15.73;;;6.00;86.00;;;;;;5062166;28;20128;-73
2021/05/02 04:33:33;;;;;;;20.88;15.15;;;5.90;86.00;;;;;;5062484;28;20043;-74
2021/05/02 04:35:59;;;;;;;20.55;16.13;;;6.00;86.00;;;;;;5065510;28;20048;-72
2021/05/02 04:38:24;;;;;;;20.35;16.08;;;6.00;85.90;;;;;;5063605;28;20052;-73
2021/05/02 04:40:50;;;;;;;22.35;16.30;;;6.00;86.00;;;;;;5065266;28;20487;-73
2021/05/02 04:43:16;;;;;;;19.77;15.35;;;6.10;86.00;;;;;;5065919;28;20045;-72
2021/05/02 04:45:41;;;;;;;22.20;16.00;;;6.10;85.90;;;;;;5066357;28;20067;-72
2021/05/02 04:48:07;;;;;;;20.67;15.35;;;6.10;85.90;;;;;;5046102;28;20047;-72
2021/05/02 04:50:33;;;;;;;22.75;15.80;;;6.10;85.90;;;;;;5054618;28;20033;-72
2021/05/02 04:53:00;;;;;;;18.90;14.90;;;6.20;85.70;;;;;;5059202;28;20094;-71
2021/05/02 04:55:26;;;;;;;22.13;15.90;;;6.20;85.70;;;;;;5059586;28;20028;-75
2021/05/02 04:57:52;;;;;;;19.08;15.40;;;6.20;85.60;;;;;;5064092;28;20047;-73
2021/05/02 05:00:18;;;;;;;21.27;16.33;;;6.30;85.50;;;;;;5069481;28;20043;-73
2021/05/02 05:02:44;;;;;;;17.67;15.50;;;6.30;85.30;;;;;;5065566;28;20033;-75
2021/05/02 05:05:10;;;;;;;21.23;16.08;;;6.30;85.10;;;;;;5067841;28;20539;-74
2021/05/02 05:07:35;;;;;;;21.52;16.20;;;6.30;85.00;;;;;;5058333;28;20120;-73
2021/05/02 05:10:02;;;;;;;20.02;15.10;;;6.30;85.00;;;;;;5058830;28;20115;-75
2021/05/02 05:12:27;;;;;;;21.50;16.33;;;6.30;85.00;;;;;;5068516;28;20056;-72
2021/05/02 05:14:53;;;;;;;21.90;16.55;;;6.40;85.00;;;;;;5062054;28;20032;-72
2021/05/02 05:17:19;;;;;;;20.70;16.05;;;6.40;84.80;;;;;;5055008;28;20071;-73
2021/05/02 05:19:44;;;;;;;20.58;17.17;;;6.50;84.80;;;;;;5066001;28;20037;-73
2021/05/02 05:22:10;;;;;;;21.75;17.20;;;6.50;84.80;;;;;;5061557;28;20369;-73
2021/05/02 05:24:37;;;;;;;20.92;15.88;;;6.50;84.90;;;;;;5053324;28;20029;-73
2021/05/02 05:27:03;;;;;;;23.58;17.90;;;6.60;84.90;;;;;;5060199;28;20032;-74
2021/05/02 05:29:29;;;;;;;22.55;16.70;;;6.70;84.70;;;;;;5057783;28;20111;-74
2021/05/02 05:31:54;;;;;;;23.27;17.90;;;6.90;84.50;;;;;;5066317;28;20142;-73
2021/05/02 05:34:20;;;;;;;23.42;18.58;;;7.10;84.30;;;;;;5068624;28;20063;-74
2021/05/02 05:36:46;;;;;;;24.63;18.73;;;7.20;83.90;;;;;;5056712;28;20025;-73
2021/05/02 05:39:11;;;;;;;24.85;18.98;;;7.30;83.80;;;;;;5062980;28;20476;-73
2021/05/02 05:41:37;;;;;;;25.17;17.98;;;7.30;83.60;;;;;;5066928;28;20036;-73
2021/05/02 05:44:03;;;;;;;25.92;18.83;;;7.40;83.40;;;;;;5065142;28;20031;-74
2021/05/02 05:46:28;;;;;;;24.10;18.83;;;7.30;83.50;;;;;;5068637;28;20112;-76
2021/05/02 05:48:54;;;;;;;24.17;17.67;;;7.30;83.40;;;;;;5068945;28;20044;-73
2021/05/02 05:51:20;;;;;;;22.23;18.42;;;7.20;83.40;;;;;;5055330;28;20073;-74
2021/05/02 05:53:45;;;;;;;22.90;17.77;;;7.20;83.60;;;;;;5046545;28;20113;-74
2021/05/02 05:56:11;;;;;;;23.58;18.52;;;7.20;84.00;;;;;;5050394;28;20085;-74
2021/05/02 05:58:37;;;;;;;24.83;18.73;;;7.30;84.10;;;;;;5055355;28;20032;-75
2021/05/02 06:01:03;;;;;;;26.23;17.88;;;7.40;83.60;;;;;;5061808;28;20487;-73
2021/05/02 06:03:28;;;;;;;25.85;18.20;;;7.50;83.30;;;;;;5061450;28;20040;-73
2021/05/02 06:05:54;;;;;;;22.63;16.73;;;7.60;83.30;;;;;;5062021;28;20032;-74
2021/05/02 06:08:19;;;;;;;23.20;17.50;;;7.80;83.20;;;;;;5064693;28;20082;-74
2021/05/02 06:10:45;;;;;;;23.98;17.48;;;7.90;82.60;;;;;;5060262;28;20090;-75
2021/05/02 06:13:11;;;;;;;20.33;15.77;;;8.00;81.90;;;;;;5053779;28;20033;-74
2021/05/02 06:15:36;;;;;;;22.05;14.07;;;8.10;81.70;;;;;;5057332;28;20029;-73
2021/05/02 06:18:02;;;;;;;20.08;14.55;;;8.10;80.40;;;;;;5063649;28;20438;-74
2021/05/02 06:20:28;;;;;;;20.58;14.70;;;8.10;80.40;;;;;;5058494;28;20128;-75
2021/05/02 06:22:54;;;;;;;21.58;13.85;;;8.10;80.00;;;;;;5059017;28;20048;-75
2021/05/02 06:25:19;;;;;;;18.38;14.75;;;8.10;79.90;;;;;;5056947;28;20083;-75
2021/05/02 06:27:45;;;;;;;19.73;14.90;;;8.20;79.60;;;;;;5061878;28;20071;-75
2021/05/02 06:30:12;;;;;;;17.38;13.27;;;8.30;79.50;;;;;;5059230;28;20053;-74
2021/05/02 06:32:38;;;;;;;18.83;12.45;;;8.40;78.40;;;;;;5057847;28;20041;-73
2021/05/02 06:35:05;;;;;;;19.05;12.90;;;8.40;78.40;;;;;;5046947;28;20029;-76
2021/05/02 06:37:31;;;;;;;21.83;12.52;;;8.50;78.30;;;;;;5059876;28;20167;-75
2021/05/02 06:39:56;;;;;;;19.50;12.35;;;8.60;77.70;;;;;;5057362;28;20146;-75
2021/05/02 06:42:23;;;;;;;16.45;10.88;;;8.70;77.10;;;;;;5058440;28;20461;-73
2021/05/02 06:44:53;;;;;;;18.00;10.73;;;8.70;76.40;;;;;;5060434;28;20143;-73
2021/05/02 06:47:19;;;;;;;17.20;9.80;;;8.70;75.80;;;;;;5044546;28;20132;-74
2021/05/02 06:49:45;;;;;;;14.63;9.15;;;8.90;76.20;;;;;;5039496;28;20491;-75
2021/05/02 06:52:11;;;;;;;14.75;9.65;;;9.00;74.50;;;;;;5037169;28;20049;-77
2021/05/02 06:54:36;;;;;;;14.48;8.30;;;9.10;74.70;;;;;;5038910;28;20677;-74
2021/05/02 06:57:02;;;;;;;17.48;6.68;;;9.20;74.30;;;;;;5039250;28;20134;-73
2021/05/02 06:59:28;;;;;;;14.73;7.40;;;9.30;72.90;;;;;;5033389;28;20033;-73
2021/05/02 07:01:54;;;;;;;15.75;7.35;;;9.50;72.00;;;;;;5040938;28;20421;-75
2021/05/02 07:04:19;;;;;;;15.18;6.03;;;9.60;71.90;;;;;;5036272;28;20167;-74
2021/05/02 07:06:45;;;;;;;11.70;6.22;;;9.60;71.40;;;;;;5037254;28;20072;-74
2021/05/02 07:09:11;;;;;;;11.10;6.00;;;9.90;71.70;;;;;;5032845;28;20098;-74
2021/05/02 07:11:37;;;;;;;11.10;5.63;;;10.00;71.40;;;;;;5035099;28;20049;-74
2021/05/02 07:14:03;;;;;;;10.77;5.65;;;9.90;68.30;;;;;;5038066;28;20041;-74
2021/05/02 07:16:29;;;;;;;11.80;5.32;;;9.80;68.90;;;;;;5035904;28;20029;-76
2021/05/02 07:18:55;;;;;;;10.73;4.95;;;9.80;68.20;;;;;;5037016;28;20052;-75
2021/05/02 07:21:21;;;;;;;11.32;4.95;;;9.80;69.30;;;;;;5034927;28;20044;-74
2021/05/02 07:23:50;;;;;;;11.30;4.20;;;9.80;69.00;;;;;;5039013;28;20055;-75
2021/05/02 07:26:17;;;;;;;10.88;4.97;;;9.90;68.80;;;;;;5034559;28;20052;-73
2021/05/02 07:28:42;;;;;;;15.93;4.75;;;10.00;68.30;;;;;;5036214;28;20048;-74
2021/05/02 07:31:08;;;;;;;10.60;4.68;;;10.00;67.50;;;;;;5036174;28;20037;-73
2021/05/02 07:33:33;;;;;;;11.02;4.88;;;9.70;67.10;;;;;;5039672;28;20120;-73
2021/05/02 07:35:59;;;;;;;9.95;4.90;;;9.70;68.40;;;;;;5034861;28;20045;-73
2021/05/02 07:38:27;;;;;;;13.02;5.30;;;9.80;68.40;;;;;;5037299;28;20389;-73
2021/05/02 07:40:56;;;;;;;8.65;4.35;;;9.90;67.40;;;;;;5037877;28;20149;-68
2021/05/02 07:43:22;;;;;;;12.55;5.03;;;10.00;67.00;;;;;;5029121;28;20041;-68
2021/05/02 07:45:47;;;;;;;11.70;4.82;;;10.10;66.20;;;;;;5032427;28;20488;-68
2021/05/02 07:48:13;;;;;;;10.10;4.25;;;10.40;65.70;;;;;;5040580;28;20045;-68
2021/05/02 07:50:39;;;;;;;9.55;4.65;;;10.30;62.70;;;;;;5038466;28;20068;-69
2021/05/02 07:53:05;;;;;;;10.05;4.05;;;10.20;62.60;;;;;;5048750;28;20393;-70
2021/05/02 07:55:31;;;;;;;9.55;4.70;;;10.10;63.00;;;;;;5051505;28;20646;-69
2021/05/02 07:57:57;;;;;;;9.95;4.75;;;10.20;63.40;;;;;;5050876;28;20036;-69
2021/05/02 08:00:23;;;;;;;9.55;4.40;;;10.30;62.90;;;;;;5055282;28;20082;-69
2021/05/02 08:02:48;;;;;;;10.02;4.70;;;10.10;63.10;;;;;;5055865;28;20045;-68
2021/05/02 08:05:14;;;;;;;10.60;4.68;;;10.30;63.90;;;;;;5062821;28;20098;-69
2021/05/02 08:07:40;;;;;;;10.38;4.38;;;10.60;63.50;;;;;;5051333;28;20033;-69
2021/05/02 08:10:07;;;;;;;7.57;3.72;;;10.70;62.20;;;;;;5042833;28;20123;-68
2021/05/02 08:12:33;;;;;;;10.05;3.90;;;10.50;61.60;;;;;;5049957;28;20044;-68
2021/05/02 08:14:58;;;;;;;10.82;3.78;;;10.70;60.50;;;;;;5040233;28;20037;-68
2021/05/02 08:17:24;;;;;;;12.25;4.22;;;11.00;57.20;;;;;;5039359;28;20145;-68
2021/05/02 08:19:50;;;;;;;8.05;3.65;;;11.40;57.70;;;;;;5039198;28;21320;-70
2021/05/02 08:22:17;;;;;;;8.63;4.18;;;11.30;55.80;;;;;;5036312;28;20060;-68
2021/05/02 08:24:42;;;;;;;8.48;3.75;;;11.40;56.30;;;;;;5040193;28;20037;-68
2021/05/02 08:27:08;;;;;;;8.93;3.50;;;11.60;55.30;;;;;;5036252;28;20033;-70
2021/05/02 08:29:34;;;;;;;11.13;4.43;;;11.60;55.50;;;;;;5035312;28;20060;-68
2021/05/02 08:31:59;;;;;;;11.38;4.45;;;11.60;56.10;;;;;;5033147;28;20041;-69
2021/05/02 08:34:25;;;;;;;10.27;3.97;;;12.00;58.30;;;;;;5035969;28;20033;-69
2021/05/02 08:36:51;;;;;;;11.60;3.92;;;11.80;56.60;;;;;;5036403;28;20053;-67
2021/05/02 08:39:16;;;;;;;8.65;3.38;;;11.30;57.70;;;;;;5033830;28;20043;-68
2021/05/02 08:41:42;;;;;;;7.30;3.30;;;11.40;59.10;;;;;;5041756;28;20071;-68
2021/05/02 08:44:08;;;;;;;9.48;3.15;;;11.60;58.30;;;;;;5035052;28;20470;-69
2021/05/02 08:46:35;;;;;;;8.70;3.22;;;11.70;56.60;;;;;;5039692;28;20042;-70
2021/05/02 08:49:02;;;;;;;8.23;3.15;;;11.70;54.90;;;;;;5034500;28;20043;-70
2021/05/02 08:51:28;;;;;;;8.07;3.20;;;11.90;53.50;;;;;;5036531;28;20076;-68
2021/05/02 08:53:55;;;;;;;8.43;3.40;;;11.90;55.20;;;;;;5033518;28;20045;-69
2021/05/02 08:56:20;;;;;;;10.50;3.47;;;12.30;53.10;;;;;;5033336;28;20111;-68
2021/05/02 08:58:46;;;;;;;9.48;3.28;;;12.70;52.30;;;;;;5048715;28;20454;-68
2021/05/02 09:01:12;;;;;;;7.85;3.00;;;13.10;50.60;;;;;;5033476;28;20536;-70
2021/05/02 09:03:46;;;;;;;7.40;3.00;;;12.50;48.80;;;;;;5038812;28;20042;-69
2021/05/02 09:06:22;;;;;;;6.88;2.65;;;12.10;51.20;;;;;;5038046;28;20052;-69
2021/05/02 09:08:53;;;;;;;9.02;3.15;;;11.90;50.60;;;;;;5034224;28;20045;-71
2021/05/02 09:11:39;;;;;;;7.38;2.58;;;11.70;50.30;;;;;;5032198;28;20136;-70
2021/05/02 09:14:22;;;;;;;6.07;2.75;;;11.40;51.00;;;;;;5034523;28;20545;-69
2021/05/02 09:16:51;;;;;;;7.55;2.95;;;11.60;53.00;;;;;;5034270;28;20307;-70
2021/05/02 09:19:17;;;;;;;6.28;2.97;;;12.00;51.80;;;;;;5034257;28;20041;-71
2021/05/02 09:21:43;;;;;;;7.78;2.70;;;12.40;51.20;;;;;;5031323;28;20055;-69
2021/05/02 09:24:32;;;;;;;7.50;2.92;;;12.30;51.90;;;;;;5033631;28;20033;-71
2021/05/02 09:27:15;;;;;;;6.63;2.70;;;11.60;52.10;;;;;;5033839;28;20040;-71
2021/05/02 09:29:44;;;;;;;6.80;3.08;;;11.30;53.60;;;;;;5035277;28;20068;-70
2021/05/02 09:32:12;;;;;;;6.68;3.00;;;11.60;52.60;;;;;;5033323;28;20124;-69
2021/05/02 09:34:48;;;;;;;8.63;2.97;;;12.10;53.30;;;;;;5036792;28;20037;-71
2021/05/02 09:37:13;;;;;;;6.28;2.90;;;12.60;50.90;;;;;;5038051;28;20477;-68
2021/05/02 09:40:00;;;;;;;7.35;2.80;;;13.20;48.40;;;;;;5033579;28;20044;-71
2021/05/02 09:42:38;;;;;;;7.30;3.17;;;13.50;45.50;;;;;;5038750;28;20040;-70
2021/05/02 09:45:07;;;;;;;6.78;3.08;;;12.70;44.60;;;;;;5034876;28;20383;-69
2021/05/02 09:47:42;;;;;;;7.75;3.00;;;12.30;47.50;;;;;;5036088;28;20515;-70
2021/05/02 09:50:10;;;;;;;7.88;3.10;;;12.10;48.90;;;;;;5034083;28;20044;-70
2021/05/02 09:52:39;;;;;;;10.05;3.92;;;12.10;50.10;;;;;;5036666;28;20041;-69
2021/05/02 09:55:41;;;;;;;6.55;3.55;;;12.40;51.80;;;;;;5034037;28;20083;-70
2021/05/02 09:58:11;;;;;;;8.38;3.40;;;13.00;47.80;;;;;;4994225;28;20024;-69
2021/05/02 10:00:42;;;;;;;6.05;3.22;;;13.10;50.50;;;;;;5039663;28;20120;-69
2021/05/02 10:03:13;;;;;;;8.95;3.30;;;13.60;49.10;;;;;;5036131;28;20032;-70
2021/05/02 10:05:59;;;;;;;7.43;3.30;;;13.40;46.30;;;;;;5040338;28;20546;-69
2021/05/02 10:08:29;;;;;;;7.55;3.45;;;12.90;48.40;;;;;;5034575;28;20044;-69
2021/05/02 10:10:56;;;;;;;8.05;3.40;;;12.40;46.90;;;;;;5040056;28;20037;-72
2021/05/02 10:13:23;;;;;;;6.05;3.00;;;12.40;47.40;;;;;;5036313;28;20050;-69
2021/05/02 10:15:48;;;;;;;7.28;3.33;;;12.60;48.10;;;;;;5028498;28;21742;-71
2021/05/02 10:18:15;;;;;;;8.25;3.60;;;12.90;48.00;;;;;;5036595;28;20484;-72
2021/05/02 10:20:45;;;;;;;8.43;3.42;;;12.80;48.70;;;;;;5037703;28;20060;-68
2021/05/02 10:23:15;;;;;;;6.07;3.10;;;12.60;48.70;;;;;;5035582;28;20095;-70
2021/05/02 10:25:42;;;;;;;6.82;3.20;;;12.60;49.40;;;;;;5027920;28;20036;-71
2021/05/02 10:28:08;;;;;;;6.88;3.25;;;13.20;47.40;;;;;;5042708;28;20432;-72
2021/05/02 10:30:39;;;;;;;6.88;3.28;;;13.50;45.10;;;;;;5035608;28;20059;-71
2021/05/02 10:33:10;;;;;;;4.90;2.78;;;13.90;44.10;;;;;;5041238;28;20496;-71
2021/05/02 10:35:54;;;;;;;6.38;2.90;;;14.40;42.80;;;;;;5036397;28;20344;-72
2021/05/02 10:38:21;;;;;;;7.00;2.90;;;14.30;42.30;;;;;;5036465;28;20037;-70
2021/05/02 10:40:47;;;;;;;9.02;3.47;;;14.10;45.20;;;;;;5041540;28;20037;-70
2021/05/02 10:43:28;;;;;;;7.28;3.30;;;14.30;43.60;;;;;;5041496;28;20129;-69
2021/05/02 10:45:54;;;;;;;8.38;4.03;;;14.60;45.90;;;;;;5042309;28;20047;-70
2021/05/02 10:48:23;;;;;;;6.70;3.40;;;14.60;43.60;;;;;;5040977;28;20037;-69
2021/05/02 10:50:51;;;;;;;7.53;3.88;;;14.80;44.40;;;;;;5053019;28;20037;-72
2021/05/02 10:53:22;;;;;;;8.00;3.63;;;14.50;45.20;;;;;;5054924;28;20432;-70
2021/05/02 10:55:58;;;;;;;8.32;3.90;;;14.10;47.80;;;;;;5057564;28;20116;-69
2021/05/02 10:58:38;;;;;;;6.03;3.45;;;13.80;47.00;;;;;;5056900;28;20036;-71
2021/05/02 11:01:24;;;;;;;6.88;3.75;;;13.70;44.80;;;;;;5056111;28;20089;-70
2021/05/02 11:03:52;;;;;;;8.32;4.30;;;13.90;45.30;;;;;;5048719;28;20059;-74
2021/05/02 11:06:39;;;;;;;9.48;4.78;;;13.90;47.60;;;;;;5057631;28;20483;-70
2021/05/02 11:09:12;;;;;;;8.55;4.60;;;14.20;45.40;;;;;;5055151;28;20072;-69
2021/05/02 11:11:42;;;;;;;8.73;4.05;;;13.90;47.50;;;;;;5056710;28;20044;-73
2021/05/02 11:14:11;;;;;;;7.00;3.78;;;14.20;45.00;;;;;;5056757;28;20488;-68
2021/05/02 11:16:45;;;;;;;8.25;5.15;;;13.70;43.60;;;;;;5052636;28;20094;-68
2021/05/02 11:19:22;;;;;;;8.73;4.15;;;13.80;45.60;;;;;;5044954;28;20086;-68
2021/05/02 11:24:24;;;;;;;9.60;4.22;;;14.20;43.00;;;;;;5038882;28;20083;-67
2021/05/02 11:29:29;;;;;;;7.75;4.25;;;13.40;43.60;;;;;;5052054;28;20036;-69
2021/05/02 11:31:54;;;;;;;7.47;3.90;;;13.60;44.20;;;;;;5050886;28;20047;-68
2021/05/02 11:34:20;;;;;;;7.45;3.60;;;14.20;42.20;;;;;;5035044;28;20041;-68
2021/05/02 11:36:46;;;;;;;7.45;3.90;;;14.80;43.20;;;;;;5038669;28;20028;-67
2021/05/02 11:39:30;;;;;;;6.38;3.30;;;14.40;42.80;;;;;;5026217;28;20040;-68
2021/05/02 11:42:08;;;;;;;8.50;3.78;;;13.80;41.00;;;;;;5034924;28;20099;-70
2021/05/02 11:44:34;;;;;;;10.10;3.72;;;13.80;41.60;;;;;;5034894;28;20033;-67
2021/05/02 11:47:11;;;;;;;7.25;4.40;;;14.10;41.00;;;;;;5053256;28;20032;-68
2021/05/02 11:49:41;;;;;;;5.50;3.50;;;14.80;39.90;;;;;;5059995;28;20021;-68
2021/05/02 11:52:07;;;;;;;7.55;3.97;;;15.20;39.20;;;;;;5056717;28;20049;-67
2021/05/02 11:54:33;;;;;;;8.18;4.22;;;15.00;39.40;;;;;;5057776;28;20032;-71
2021/05/02 11:56:59;;;;;;;9.02;3.60;;;14.80;41.00;;;;;;5054529;28;20041;-69
2021/05/02 11:59:25;;;;;;;7.65;3.65;;;14.60;42.40;;;;;;5056801;28;20028;-68
2021/05/02 12:01:51;;;;;;;6.07;3.13;;;14.20;41.10;;;;;;5054736;28;20127;-70
2021/05/02 12:04:19;;;;;;;6.47;2.90;;;13.60;41.40;;;;;;5054046;28;20460;-67
2021/05/02 12:06:46;;;;;;;7.28;3.08;;;13.90;40.90;;;;;;5058687;28;20031;-68
2021/05/02 12:09:18;;;;;;;6.10;3.08;;;14.10;40.50;;;;;;5047869;28;20499;-69
2021/05/02 12:11:55;;;;;;;5.53;2.90;;;13.60;42.70;;;;;;5055148;28;20169;-68
2021/05/02 12:14:23;;;;;;;7.53;3.38;;;13.60;42.10;;;;;;5046365;28;20050;-68
2021/05/02 12:16:55;;;;;;;7.15;3.55;;;13.80;43.40;;;;;;5047147;28;20480;-67
2021/05/02 12:19:21;;;;;;;7.43;3.67;;;13.70;43.00;;;;;;5060575;28;21712;-68
2021/05/02 12:21:48;;;;;;;6.45;3.47;;;13.30;44.00;;;;;;5061616;28;20082;-68
2021/05/02 12:24:14;;;;;;;6.30;3.42;;;13.40;43.50;;;;;;5064310;28;20032;-69
2021/05/02 12:26:42;;;;;;;6.55;4.05;;;13.40;44.50;;;;;;5064308;28;20059;-67
2021/05/02 12:29:10;;;;;;;6.78;3.42;;;13.30;46.50;;;;;;5052939;28;20060;-68
2021/05/02 12:31:36;;;;;;;6.18;3.20;;;13.50;46.60;;;;;;5062362;28;20071;-67
2021/05/02 12:34:10;;;;;;;6.60;3.60;;;13.70;44.50;;;;;;5061429;28;20469;-67
2021/05/02 12:36:37;;;;;;;7.97;3.25;;;13.90;43.70;;;;;;5053453;28;20546;-68
2021/05/02 12:39:12;;;;;;;7.82;3.35;;;14.10;43.80;;;;;;5054814;28;20044;-71
2021/05/02 12:41:38;;;;;;;6.65;3.33;;;14.00;44.00;;;;;;5057809;28;20048;-67
2021/05/02 12:44:31;;;;;;;7.35;3.30;;;13.20;45.40;;;;;;5059359;28;20029;-68
2021/05/02 12:46:59;;;;;;;6.78;3.10;;;13.10;46.30;;;;;;5053188;28;20135;-71
2021/05/02 12:49:29;;;;;;;7.15;3.22;;;13.30;44.70;;;;;;5057393;28;20059;-67
2021/05/02 12:51:59;;;;;;;7.05;3.40;;;13.70;44.60;;;;;;5055899;28;20709;-67
2021/05/02 12:54:27;;;;;;;5.95;2.70;;;14.10;43.80;;;;;;5049907;28;20033;-67